sensor_id;sensor_type;location;lat;lon;timestamp;pressure;altitude;pressure_sealevel;temperature;humidity
6433;BME280;3249;42.690;23.260;2023-08-06T00:00:21;93193.00;;;17.67;100.00
6433;BME280;3249;42.690;23.260;2023-08-06T00:02:53;93177.75;;;17.61;100.00
6433;BME280;3249;42.690;23.260;2023-08-06T00:05:22;93226.63;;;17.96;100.00
6433;BME280;3249;42.690;23.260;2023-08-06T00:07:51;93236.09;;;18.19;100.00
6433;BME280;3249;42.690;23.260;2023-08-06T00:10:20;93234.97;;;18.25;100.00
6433;BME280;3249;42.690;23.260;2023-08-06T00:12:49;93243.25;;;18.27;100.00
6433;BME280;3249;42.690;23.260;2023-08-06T00:15:18;93247.31;;;18.20;100.00
6433;BME280;3249;42.690;23.260;2023-08-06T00:17:47;93231.53;;;17.97;100.00
6433;BME280;3249;42.690;23.260;2023-08-06T00:20:19;93208.72;;;17.76;100.00
6433;BME280;3249;42.690;23.260;2023-08-06T00:22:48;93228.13;;;17.83;100.00
6433;BME280;3249;42.690;23.260;2023-08-06T00:25:17;93237.53;;;17.98;100.00
6433;BME280;3249;42.690;23.260;2023-08-06T00:27:46;93238.53;;;18.16;100.00
6433;BME280;3249;42.690;23.260;2023-08-06T00:30:14;93224.19;;;17.86;100.00
6433;BME280;3249;42.690;23.260;2023-08-06T00:32:43;93208.25;;;17.74;100.00
6433;BME280;3249;42.690;23.260;2023-08-06T00:35:13;93201.19;;;17.61;100.00
6433;BME280;3249;42.690;23.260;2023-08-06T00:37:45;93196.63;;;17.53;100.00
6433;BME280;3249;42.690;23.260;2023-08-06T00:40:14;93202.06;;;17.70;100.00
6433;BME280;3249;42.690;23.260;2023-08-06T00:42:42;93209.19;;;17.64;100.00
6433;BME280;3249;42.690;23.260;2023-08-06T00:45:13;93212.41;;;17.88;100.00
6433;BME280;3249;42.690;23.260;2023-08-06T00:47:42;93206.88;;;18.08;100.00
6433;BME280;3249;42.690;23.260;2023-08-06T00:50:12;93211.72;;;18.29;100.00
6433;BME280;3249;42.690;23.260;2023-08-06T00:52:45;93204.06;;;18.05;100.00
6433;BME280;3249;42.690;23.260;2023-08-06T00:55:14;93201.84;;;18.26;100.00
6433;BME280;3249;42.690;23.260;2023-08-06T00:57:44;93205.69;;;18.47;100.00
6433;BME280;3249;42.690;23.260;2023-08-06T01:00:13;93205.06;;;18.63;100.00
6433;BME280;3249;42.690;23.260;2023-08-06T01:02:42;93198.53;;;18.66;100.00
6433;BME280;3249;42.690;23.260;2023-08-06T01:05:11;93198.19;;;18.81;100.00
6433;BME280;3249;42.690;23.260;2023-08-06T01:07:48;93182.16;;;18.87;100.00
6433;BME280;3249;42.690;23.260;2023-08-06T01:10:27;93154.81;;;18.85;100.00
6433;BME280;3249;42.690;23.260;2023-08-06T01:13:08;93156.03;;;18.52;100.00
6433;BME280;3249;42.690;23.260;2023-08-06T01:15:43;93171.50;;;18.35;100.00
6433;BME280;3249;42.690;23.260;2023-08-06T01:18:15;93173.91;;;18.45;100.00
6433;BME280;3249;42.690;23.260;2023-08-06T01:20:47;93169.94;;;18.61;100.00
6433;BME280;3249;42.690;23.260;2023-08-06T01:23:16;93163.78;;;18.43;100.00
6433;BME280;3249;42.690;23.260;2023-08-06T01:25:49;93176.50;;;18.72;100.00
6433;BME280;3249;42.690;23.260;2023-08-06T01:28:29;93172.16;;;18.54;100.00
6433;BME280;3249;42.690;23.260;2023-08-06T01:31:02;93173.44;;;18.56;100.00
6433;BME280;3249;42.690;23.260;2023-08-06T01:33:37;93161.44;;;18.55;100.00
6433;BME280;3249;42.690;23.260;2023-08-06T01:36:12;93148.69;;;18.54;100.00
6433;BME280;3249;42.690;23.260;2023-08-06T01:38:43;93143.84;;;18.34;100.00
6433;BME280;3249;42.690;23.260;2023-08-06T01:41:12;93137.69;;;18.30;100.00
6433;BME280;3249;42.690;23.260;2023-08-06T01:43:41;93151.41;;;18.49;100.00
6433;BME280;3249;42.690;23.260;2023-08-06T01:46:10;93155.88;;;18.35;100.00
6433;BME280;3249;42.690;23.260;2023-08-06T01:48:38;93155.09;;;18.48;100.00
6433;BME280;3249;42.690;23.260;2023-08-06T01:51:08;93151.81;;;18.56;100.00
6433;BME280;3249;42.690;23.260;2023-08-06T01:53:40;93155.75;;;18.53;100.00
6433;BME280;3249;42.690;23.260;2023-08-06T01:56:09;93168.41;;;18.60;100.00
6433;BME280;3249;42.690;23.260;2023-08-06T01:58:38;93154.50;;;18.64;100.00
6433;BME280;3249;42.690;23.260;2023-08-06T02:01:07;93129.41;;;18.55;100.00
6433;BME280;3249;42.690;23.260;2023-08-06T02:03:36;93132.47;;;18.57;100.00
6433;BME280;3249;42.690;23.260;2023-08-06T02:06:06;93121.38;;;18.51;100.00
6433;BME280;3249;42.690;23.260;2023-08-06T02:08:35;93133.66;;;18.51;100.00
6433;BME280;3249;42.690;23.260;2023-08-06T02:11:07;93135.03;;;18.48;100.00
6433;BME280;3249;42.690;23.260;2023-08-06T02:13:35;93135.59;;;18.45;100.00
6433;BME280;3249;42.690;23.260;2023-08-06T02:16:06;93130.09;;;18.47;100.00
6433;BME280;3249;42.690;23.260;2023-08-06T02:18:36;93148.06;;;18.48;100.00
6433;BME280;3249;42.690;23.260;2023-08-06T02:21:05;93155.94;;;18.57;100.00
6433;BME280;3249;42.690;23.260;2023-08-06T02:23:33;93167.25;;;18.66;100.00
6433;BME280;3249;42.690;23.260;2023-08-06T02:26:06;93169.91;;;18.74;100.00
6433;BME280;3249;42.690;23.260;2023-08-06T02:28:35;93170.28;;;18.81;100.00
6433;BME280;3249;42.690;23.260;2023-08-06T02:31:03;93128.81;;;18.58;100.00
6433;BME280;3249;42.690;23.260;2023-08-06T02:33:32;93118.34;;;18.71;100.00
6433;BME280;3249;42.690;23.260;2023-08-06T02:36:02;93134.06;;;18.80;100.00
6433;BME280;3249;42.690;23.260;2023-08-06T02:38:32;93168.34;;;18.87;100.00
6433;BME280;3249;42.690;23.260;2023-08-06T02:41:02;93169.44;;;18.86;100.00
6433;BME280;3249;42.690;23.260;2023-08-06T02:43:34;93192.34;;;19.11;100.00
6433;BME280;3249;42.690;23.260;2023-08-06T02:46:03;93176.69;;;19.11;100.00
6433;BME280;3249;42.690;23.260;2023-08-06T02:48:33;93177.53;;;19.20;100.00
6433;BME280;3249;42.690;23.260;2023-08-06T02:51:02;93155.59;;;18.85;100.00
6433;BME280;3249;42.690;23.260;2023-08-06T02:53:30;93157.16;;;18.73;100.00
6433;BME280;3249;42.690;23.260;2023-08-06T02:56:04;93129.19;;;18.65;100.00
6433;BME280;3249;42.690;23.260;2023-08-06T02:58:56;93102.97;;;18.48;100.00
6433;BME280;3249;42.690;23.260;2023-08-06T03:01:38;93126.31;;;18.53;100.00
6433;BME280;3249;42.690;23.260;2023-08-06T03:04:15;93130.91;;;18.69;100.00
6433;BME280;3249;42.690;23.260;2023-08-06T03:06:47;93102.97;;;18.48;100.00
6433;BME280;3249;42.690;23.260;2023-08-06T03:09:19;93069.22;;;18.16;100.00
6433;BME280;3249;42.690;23.260;2023-08-06T03:11:49;93083.97;;;18.07;100.00
6433;BME280;3249;42.690;23.260;2023-08-06T03:14:22;93133.75;;;18.46;100.00
6433;BME280;3249;42.690;23.260;2023-08-06T03:16:51;93125.91;;;18.59;100.00
6433;BME280;3249;42.690;23.260;2023-08-06T03:19:20;93089.25;;;18.56;100.00
6433;BME280;3249;42.690;23.260;2023-08-06T03:21:49;93078.97;;;18.37;100.00
6433;BME280;3249;42.690;23.260;2023-08-06T03:24:18;93115.16;;;18.74;100.00
6433;BME280;3249;42.690;23.260;2023-08-06T03:26:47;93129.81;;;18.84;100.00
6433;BME280;3249;42.690;23.260;2023-08-06T03:29:16;93107.72;;;18.81;100.00
6433;BME280;3249;42.690;23.260;2023-08-06T03:31:49;93116.69;;;18.75;100.00
6433;BME280;3249;42.690;23.260;2023-08-06T03:34:18;93131.72;;;18.92;100.00
6433;BME280;3249;42.690;23.260;2023-08-06T03:36:49;93149.88;;;18.97;100.00
6433;BME280;3249;42.690;23.260;2023-08-06T03:39:18;93148.81;;;18.98;100.00
6433;BME280;3249;42.690;23.260;2023-08-06T03:41:47;93149.16;;;18.83;100.00
6433;BME280;3249;42.690;23.260;2023-08-06T03:44:16;93143.81;;;18.88;100.00
6433;BME280;3249;42.690;23.260;2023-08-06T03:46:45;93147.50;;;18.87;100.00
6433;BME280;3249;42.690;23.260;2023-08-06T03:49:17;93158.09;;;18.90;100.00
6433;BME280;3249;42.690;23.260;2023-08-06T03:51:46;93160.66;;;19.04;100.00
6433;BME280;3249;42.690;23.260;2023-08-06T03:54:15;93146.22;;;18.98;100.00
6433;BME280;3249;42.690;23.260;2023-08-06T03:56:44;93165.22;;;18.98;100.00
6433;BME280;3249;42.690;23.260;2023-08-06T03:59:13;93164.28;;;18.81;100.00
6433;BME280;3249;42.690;23.260;2023-08-06T04:01:42;93169.50;;;18.81;100.00
6433;BME280;3249;42.690;23.260;2023-08-06T04:04:10;93167.44;;;18.56;100.00
6433;BME280;3249;42.690;23.260;2023-08-06T04:06:42;93171.00;;;18.60;100.00
6433;BME280;3249;42.690;23.260;2023-08-06T04:09:11;93176.38;;;18.77;100.00
6433;BME280;3249;42.690;23.260;2023-08-06T04:11:40;93177.03;;;18.96;100.00
6433;BME280;3249;42.690;23.260;2023-08-06T04:14:09;93175.16;;;19.10;100.00
6433;BME280;3249;42.690;23.260;2023-08-06T04:16:38;93186.59;;;19.22;100.00
6433;BME280;3249;42.690;23.260;2023-08-06T04:19:08;93170.69;;;19.24;100.00
6433;BME280;3249;42.690;23.260;2023-08-06T04:21:37;93161.19;;;19.28;100.00
6433;BME280;3249;42.690;23.260;2023-08-06T04:24:08;93169.13;;;19.45;100.00
6433;BME280;3249;42.690;23.260;2023-08-06T04:26:37;93156.22;;;19.40;100.00
6433;BME280;3249;42.690;23.260;2023-08-06T04:29:07;93160.38;;;19.41;100.00
6433;BME280;3249;42.690;23.260;2023-08-06T04:31:36;93150.09;;;18.87;100.00
6433;BME280;3249;42.690;23.260;2023-08-06T04:34:05;93152.75;;;18.60;100.00
6433;BME280;3249;42.690;23.260;2023-08-06T04:36:36;93143.78;;;18.66;100.00
6433;BME280;3249;42.690;23.260;2023-08-06T04:39:10;93160.44;;;18.78;100.00
6433;BME280;3249;42.690;23.260;2023-08-06T04:41:39;93153.25;;;18.62;100.00
6433;BME280;3249;42.690;23.260;2023-08-06T04:44:08;93135.34;;;18.69;100.00
6433;BME280;3249;42.690;23.260;2023-08-06T04:46:38;93119.47;;;18.92;100.00
6433;BME280;3249;42.690;23.260;2023-08-06T04:49:07;93115.75;;;19.07;100.00
6433;BME280;3249;42.690;23.260;2023-08-06T04:51:36;93111.72;;;19.23;100.00
6433;BME280;3249;42.690;23.260;2023-08-06T04:54:05;93102.72;;;19.29;100.00
6433;BME280;3249;42.690;23.260;2023-08-06T04:56:36;93098.75;;;19.31;100.00
6433;BME280;3249;42.690;23.260;2023-08-06T04:59:05;93093.66;;;19.26;100.00
6433;BME280;3249;42.690;23.260;2023-08-06T05:01:34;93080.31;;;19.28;100.00
6433;BME280;3249;42.690;23.260;2023-08-06T05:04:03;93091.56;;;19.37;100.00
6433;BME280;3249;42.690;23.260;2023-08-06T05:06:32;93092.50;;;19.41;100.00
6433;BME280;3249;42.690;23.260;2023-08-06T05:09:04;93094.88;;;19.51;100.00
6433;BME280;3249;42.690;23.260;2023-08-06T05:11:35;93102.84;;;19.46;100.00
6433;BME280;3249;42.690;23.260;2023-08-06T05:14:04;93098.88;;;19.57;100.00
6433;BME280;3249;42.690;23.260;2023-08-06T05:16:33;93097.56;;;19.68;100.00
6433;BME280;3249;42.690;23.260;2023-08-06T05:19:02;93106.38;;;19.80;100.00
6433;BME280;3249;42.690;23.260;2023-08-06T05:21:31;93106.44;;;19.89;100.00
6433;BME280;3249;42.690;23.260;2023-08-06T05:24:00;93111.66;;;19.89;100.00
6433;BME280;3249;42.690;23.260;2023-08-06T05:26:29;93111.09;;;20.00;100.00
6433;BME280;3249;42.690;23.260;2023-08-06T05:29:00;93107.63;;;20.13;100.00
6433;BME280;3249;42.690;23.260;2023-08-06T05:31:29;93099.47;;;20.15;100.00
6433;BME280;3249;42.690;23.260;2023-08-06T05:33:58;93106.56;;;20.23;100.00
6433;BME280;3249;42.690;23.260;2023-08-06T05:36:27;93110.91;;;20.27;100.00
6433;BME280;3249;42.690;23.260;2023-08-06T05:38:56;93095.72;;;20.38;100.00
6433;BME280;3249;42.690;23.260;2023-08-06T05:41:25;93090.69;;;20.58;100.00
6433;BME280;3249;42.690;23.260;2023-08-06T05:43:54;93096.19;;;20.65;100.00
6433;BME280;3249;42.690;23.260;2023-08-06T05:46:26;93080.19;;;20.50;100.00
6433;BME280;3249;42.690;23.260;2023-08-06T05:48:54;93103.56;;;20.55;100.00
6433;BME280;3249;42.690;23.260;2023-08-06T05:51:25;93103.59;;;20.72;100.00
6433;BME280;3249;42.690;23.260;2023-08-06T05:53:54;93103.91;;;20.79;100.00
6433;BME280;3249;42.690;23.260;2023-08-06T05:56:23;93117.47;;;20.81;100.00
6433;BME280;3249;42.690;23.260;2023-08-06T05:58:52;93121.00;;;20.76;100.00
6433;BME280;3249;42.690;23.260;2023-08-06T06:01:21;93124.88;;;20.96;100.00
6433;BME280;3249;42.690;23.260;2023-08-06T06:03:53;93126.44;;;20.97;100.00
6433;BME280;3249;42.690;23.260;2023-08-06T06:06:22;93126.28;;;21.10;100.00
6433;BME280;3249;42.690;23.260;2023-08-06T06:08:51;93134.88;;;21.11;100.00
6433;BME280;3249;42.690;23.260;2023-08-06T06:11:20;93135.38;;;21.13;100.00
6433;BME280;3249;42.690;23.260;2023-08-06T06:13:50;93113.97;;;20.94;100.00
6433;BME280;3249;42.690;23.260;2023-08-06T06:16:19;93143.19;;;20.96;100.00
6433;BME280;3249;42.690;23.260;2023-08-06T06:18:48;93131.28;;;20.81;100.00
6433;BME280;3249;42.690;23.260;2023-08-06T06:21:20;93155.50;;;21.04;100.00
6433;BME280;3249;42.690;23.260;2023-08-06T06:23:49;93155.38;;;21.09;100.00
6433;BME280;3249;42.690;23.260;2023-08-06T06:26:19;93164.28;;;21.08;100.00
6433;BME280;3249;42.690;23.260;2023-08-06T06:28:47;93164.28;;;21.08;100.00
6433;BME280;3249;42.690;23.260;2023-08-06T06:31:16;93172.47;;;21.32;100.00
6433;BME280;3249;42.690;23.260;2023-08-06T06:33:46;93174.47;;;21.52;100.00
6433;BME280;3249;42.690;23.260;2023-08-06T06:36:16;93162.28;;;21.73;100.00
6433;BME280;3249;42.690;23.260;2023-08-06T06:38:48;93177.38;;;21.76;100.00
6433;BME280;3249;42.690;23.260;2023-08-06T06:41:17;93179.84;;;21.81;100.00
6433;BME280;3249;42.690;23.260;2023-08-06T06:43:46;93193.84;;;21.51;100.00
6433;BME280;3249;42.690;23.260;2023-08-06T06:46:15;93202.63;;;21.29;100.00
6433;BME280;3249;42.690;23.260;2023-08-06T06:48:45;93201.56;;;21.05;100.00
6433;BME280;3249;42.690;23.260;2023-08-06T06:51:14;93185.38;;;21.03;100.00
6433;BME280;3249;42.690;23.260;2023-08-06T06:53:42;93193.19;;;20.86;100.00
6433;BME280;3249;42.690;23.260;2023-08-06T06:56:14;93196.25;;;20.88;100.00
6433;BME280;3249;42.690;23.260;2023-08-06T06:58:43;93204.63;;;21.07;100.00
6433;BME280;3249;42.690;23.260;2023-08-06T07:01:12;93205.88;;;21.26;100.00
6433;BME280;3249;42.690;23.260;2023-08-06T07:03:41;93214.34;;;21.23;100.00
6433;BME280;3249;42.690;23.260;2023-08-06T07:06:10;93223.28;;;21.22;100.00
6433;BME280;3249;42.690;23.260;2023-08-06T07:08:41;93227.75;;;21.22;100.00
6433;BME280;3249;42.690;23.260;2023-08-06T07:11:10;93231.44;;;21.38;100.00
6433;BME280;3249;42.690;23.260;2023-08-06T07:13:42;93226.69;;;21.57;100.00
6433;BME280;3249;42.690;23.260;2023-08-06T07:16:11;93229.44;;;21.60;100.00
6433;BME280;3249;42.690;23.260;2023-08-06T07:18:40;93234.69;;;21.77;100.00
6433;BME280;3249;42.690;23.260;2023-08-06T07:21:09;93243.63;;;21.68;100.00
6433;BME280;3249;42.690;23.260;2023-08-06T07:23:38;93239.19;;;21.77;100.00
6433;BME280;3249;42.690;23.260;2023-08-06T07:26:06;93238.25;;;21.73;100.00
6433;BME280;3249;42.690;23.260;2023-08-06T07:28:36;93245.47;;;21.67;100.00
6433;BME280;3249;42.690;23.260;2023-08-06T07:31:07;93242.56;;;21.69;100.00
6433;BME280;3249;42.690;23.260;2023-08-06T07:33:36;93239.47;;;21.33;100.00
6433;BME280;3249;42.690;23.260;2023-08-06T07:36:09;93237.59;;;21.59;100.00
6433;BME280;3249;42.690;23.260;2023-08-06T07:38:39;93243.03;;;21.88;100.00
6433;BME280;3249;42.690;23.260;2023-08-06T07:41:08;93208.66;;;21.64;100.00
6433;BME280;3249;42.690;23.260;2023-08-06T07:43:37;93231.16;;;21.82;100.00
6433;BME280;3249;42.690;23.260;2023-08-06T07:46:08;93214.06;;;21.76;100.00
6433;BME280;3249;42.690;23.260;2023-08-06T07:48:39;93231.13;;;21.99;100.00
6433;BME280;3249;42.690;23.260;2023-08-06T07:51:08;93221.13;;;22.01;100.00
6433;BME280;3249;42.690;23.260;2023-08-06T07:53:37;93229.22;;;22.34;100.00
6433;BME280;3249;42.690;23.260;2023-08-06T07:56:07;93233.22;;;22.31;100.00
6433;BME280;3249;42.690;23.260;2023-08-06T07:58:39;93235.69;;;22.36;100.00
6433;BME280;3249;42.690;23.260;2023-08-06T08:01:26;93225.44;;;22.60;100.00
6433;BME280;3249;42.690;23.260;2023-08-06T08:03:54;93232.59;;;22.51;100.00
6433;BME280;3249;42.690;23.260;2023-08-06T08:06:24;93226.34;;;22.64;100.00
6433;BME280;3249;42.690;23.260;2023-08-06T08:08:53;93201.50;;;22.62;100.00
6433;BME280;3249;42.690;23.260;2023-08-06T08:11:25;93202.75;;;22.85;100.00
6433;BME280;3249;42.690;23.260;2023-08-06T08:13:54;93217.28;;;22.82;100.00
6433;BME280;3249;42.690;23.260;2023-08-06T08:16:26;93224.00;;;23.00;100.00
6433;BME280;3249;42.690;23.260;2023-08-06T08:18:55;93227.97;;;23.06;100.00
6433;BME280;3249;42.690;23.260;2023-08-06T08:21:29;93215.84;;;23.22;100.00
6433;BME280;3249;42.690;23.260;2023-08-06T08:23:59;93211.75;;;23.33;100.00
6433;BME280;3249;42.690;23.260;2023-08-06T08:26:28;93214.88;;;22.69;100.00
6433;BME280;3249;42.690;23.260;2023-08-06T08:29:00;93215.84;;;22.64;100.00
6433;BME280;3249;42.690;23.260;2023-08-06T08:31:35;93210.78;;;22.59;100.00
6433;BME280;3249;42.690;23.260;2023-08-06T08:34:05;93215.47;;;22.74;100.00
6433;BME280;3249;42.690;23.260;2023-08-06T08:36:34;93211.69;;;22.63;100.00
6433;BME280;3249;42.690;23.260;2023-08-06T08:39:03;93217.41;;;22.57;100.00
6433;BME280;3249;42.690;23.260;2023-08-06T08:41:37;93212.31;;;22.89;100.00
6433;BME280;3249;42.690;23.260;2023-08-06T08:44:09;93215.03;;;23.01;100.00
6433;BME280;3249;42.690;23.260;2023-08-06T08:46:41;93213.06;;;23.19;100.00
6433;BME280;3249;42.690;23.260;2023-08-06T08:49:13;93214.00;;;23.23;100.00
6433;BME280;3249;42.690;23.260;2023-08-06T08:51:45;93207.16;;;23.01;100.00
6433;BME280;3249;42.690;23.260;2023-08-06T08:54:15;93207.44;;;22.79;100.00
6433;BME280;3249;42.690;23.260;2023-08-06T08:56:45;93204.91;;;22.91;100.00
6433;BME280;3249;42.690;23.260;2023-08-06T08:59:14;93203.19;;;22.95;100.00
6433;BME280;3249;42.690;23.260;2023-08-06T09:01:48;93197.97;;;22.87;100.00
6433;BME280;3249;42.690;23.260;2023-08-06T09:04:19;93195.66;;;22.85;100.00
6433;BME280;3249;42.690;23.260;2023-08-06T09:06:50;93193.91;;;22.98;100.00
6433;BME280;3249;42.690;23.260;2023-08-06T09:09:24;93192.53;;;22.92;100.00
6433;BME280;3249;42.690;23.260;2023-08-06T09:12:00;93190.16;;;23.07;100.00
6433;BME280;3249;42.690;23.260;2023-08-06T09:14:29;93200.22;;;23.26;100.00
6433;BME280;3249;42.690;23.260;2023-08-06T09:17:02;93194.72;;;23.39;100.00
6433;BME280;3249;42.690;23.260;2023-08-06T09:19:32;93185.44;;;23.21;99.51
6433;BME280;3249;42.690;23.260;2023-08-06T09:22:01;93186.34;;;23.46;99.55
6433;BME280;3249;42.690;23.260;2023-08-06T09:24:38;93195.06;;;23.70;98.17
6433;BME280;3249;42.690;23.260;2023-08-06T09:27:11;93200.25;;;23.99;92.44
6433;BME280;3249;42.690;23.260;2023-08-06T09:29:42;93181.31;;;23.85;85.46
6433;BME280;3249;42.690;23.260;2023-08-06T09:32:16;93195.56;;;23.84;77.94
6433;BME280;3249;42.690;23.260;2023-08-06T09:34:55;93177.25;;;23.76;78.42
6433;BME280;3249;42.690;23.260;2023-08-06T09:37:35;93184.59;;;24.03;81.53
6433;BME280;3249;42.690;23.260;2023-08-06T09:40:24;93192.16;;;23.84;82.15
6433;BME280;3249;42.690;23.260;2023-08-06T09:42:53;93178.28;;;23.83;84.97
6433;BME280;3249;42.690;23.260;2023-08-06T09:45:22;93187.31;;;23.74;84.96
6433;BME280;3249;42.690;23.260;2023-08-06T09:47:55;93184.19;;;23.60;83.93
6433;BME280;3249;42.690;23.260;2023-08-06T09:50:29;93187.66;;;23.72;80.57
6433;BME280;3249;42.690;23.260;2023-08-06T09:52:59;93195.69;;;23.88;78.02
6433;BME280;3249;42.690;23.260;2023-08-06T09:55:29;93184.75;;;24.18;77.25
6433;BME280;3249;42.690;23.260;2023-08-06T09:57:58;93184.41;;;24.32;74.82
6433;BME280;3249;42.690;23.260;2023-08-06T10:00:29;93193.56;;;24.58;77.44
6433;BME280;3249;42.690;23.260;2023-08-06T10:03:02;93174.91;;;24.39;75.68
6433;BME280;3249;42.690;23.260;2023-08-06T10:05:34;93199.69;;;24.50;77.45
6433;BME280;3249;42.690;23.260;2023-08-06T10:08:06;93200.81;;;24.73;75.46
6433;BME280;3249;42.690;23.260;2023-08-06T10:10:36;93202.13;;;25.03;72.35
6433;BME280;3249;42.690;23.260;2023-08-06T10:13:06;93210.91;;;25.31;66.87
6433;BME280;3249;42.690;23.260;2023-08-06T10:15:36;93209.22;;;25.27;63.61
6433;BME280;3249;42.690;23.260;2023-08-06T10:18:09;93204.09;;;25.18;63.87
6433;BME280;3249;42.690;23.260;2023-08-06T10:20:38;93207.38;;;25.39;63.03
6433;BME280;3249;42.690;23.260;2023-08-06T10:23:08;93204.66;;;25.36;64.60
6433;BME280;3249;42.690;23.260;2023-08-06T10:25:41;93207.38;;;25.39;66.23
6433;BME280;3249;42.690;23.260;2023-08-06T10:28:10;93205.22;;;25.29;71.04
6433;BME280;3249;42.690;23.260;2023-08-06T10:30:45;93205.69;;;25.47;72.70
6433;BME280;3249;42.690;23.260;2023-08-06T10:33:19;93210.56;;;25.72;74.02
6433;BME280;3249;42.690;23.260;2023-08-06T10:35:50;93199.59;;;25.70;69.29
6433;BME280;3249;42.690;23.260;2023-08-06T10:38:21;93221.09;;;25.72;71.39
6433;BME280;3249;42.690;23.260;2023-08-06T10:41:01;93221.97;;;25.37;73.97
6433;BME280;3249;42.690;23.260;2023-08-06T10:43:32;93229.44;;;25.23;76.28
6433;BME280;3249;42.690;23.260;2023-08-06T10:46:09;93220.13;;;24.77;81.75
6433;BME280;3249;42.690;23.260;2023-08-06T10:48:44;93209.06;;;25.08;79.26
6433;BME280;3249;42.690;23.260;2023-08-06T10:51:14;93236.34;;;25.27;75.52
6433;BME280;3249;42.690;23.260;2023-08-06T10:53:46;93233.72;;;25.27;74.05
6433;BME280;3249;42.690;23.260;2023-08-06T10:56:15;93240.81;;;25.51;76.79
6433;BME280;3249;42.690;23.260;2023-08-06T10:58:45;93247.25;;;25.77;77.53
6433;BME280;3249;42.690;23.260;2023-08-06T11:01:15;93223.63;;;24.93;80.93
6433;BME280;3249;42.690;23.260;2023-08-06T11:03:47;93244.38;;;24.95;81.96
6433;BME280;3249;42.690;23.260;2023-08-06T11:06:17;93237.09;;;24.56;83.09
6433;BME280;3249;42.690;23.260;2023-08-06T11:08:48;93251.50;;;23.93;90.95
6433;BME280;3249;42.690;23.260;2023-08-06T11:11:17;93241.16;;;23.27;100.00
6433;BME280;3249;42.690;23.260;2023-08-06T11:13:47;93237.78;;;23.47;100.00
6433;BME280;3249;42.690;23.260;2023-08-06T11:16:18;93260.72;;;23.79;96.02
6433;BME280;3249;42.690;23.260;2023-08-06T11:18:50;93272.66;;;23.76;85.67
6433;BME280;3249;42.690;23.260;2023-08-06T11:21:20;93253.94;;;23.57;89.32
6433;BME280;3249;42.690;23.260;2023-08-06T11:23:50;93255.13;;;23.60;96.00
6433;BME280;3249;42.690;23.260;2023-08-06T11:26:20;93259.19;;;23.57;98.12
6433;BME280;3249;42.690;23.260;2023-08-06T11:28:49;93246.03;;;23.57;100.00
6433;BME280;3249;42.690;23.260;2023-08-06T11:31:24;93248.41;;;23.71;96.66
6433;BME280;3249;42.690;23.260;2023-08-06T11:33:55;93246.94;;;23.82;98.59
6433;BME280;3249;42.690;23.260;2023-08-06T11:36:31;93233.41;;;23.92;97.29
6433;BME280;3249;42.690;23.260;2023-08-06T11:39:00;93250.03;;;24.16;97.24
6433;BME280;3249;42.690;23.260;2023-08-06T11:41:31;93221.13;;;24.16;88.39
6433;BME280;3249;42.690;23.260;2023-08-06T11:44:00;93243.13;;;24.56;89.27
6433;BME280;3249;42.690;23.260;2023-08-06T11:46:49;93241.88;;;24.86;84.50
6433;BME280;3249;42.690;23.260;2023-08-06T11:49:46;93242.19;;;24.97;80.77
6433;BME280;3249;42.690;23.260;2023-08-06T11:52:23;93232.53;;;24.77;78.19
6433;BME280;3249;42.690;23.260;2023-08-06T11:55:02;93240.34;;;25.09;78.73
6433;BME280;3249;42.690;23.260;2023-08-06T11:57:46;93236.47;;;24.83;75.86
6433;BME280;3249;42.690;23.260;2023-08-06T12:00:15;93236.94;;;24.97;73.67
6433;BME280;3249;42.690;23.260;2023-08-06T12:02:50;93225.41;;;25.13;75.67
6433;BME280;3249;42.690;23.260;2023-08-06T12:05:28;93207.19;;;24.96;69.92
6433;BME280;3249;42.690;23.260;2023-08-06T12:08:00;93244.16;;;25.24;66.22
6433;BME280;3249;42.690;23.260;2023-08-06T12:10:30;93233.28;;;25.25;66.70
6433;BME280;3249;42.690;23.260;2023-08-06T12:13:00;93225.38;;;25.25;66.22
6433;BME280;3249;42.690;23.260;2023-08-06T12:15:30;93228.78;;;25.26;68.63
6433;BME280;3249;42.690;23.260;2023-08-06T12:17:59;93226.59;;;25.16;68.47
6433;BME280;3249;42.690;23.260;2023-08-06T12:20:30;93230.47;;;24.82;71.18
6433;BME280;3249;42.690;23.260;2023-08-06T12:22:59;93229.81;;;25.09;68.09
6433;BME280;3249;42.690;23.260;2023-08-06T12:25:28;93229.91;;;24.89;67.32
6433;BME280;3249;42.690;23.260;2023-08-06T12:27:57;93218.03;;;24.83;68.46
6433;BME280;3249;42.690;23.260;2023-08-06T12:30:26;93219.78;;;24.79;70.26
6433;BME280;3249;42.690;23.260;2023-08-06T12:32:55;93217.94;;;24.91;68.75
6433;BME280;3249;42.690;23.260;2023-08-06T12:35:24;93226.72;;;25.31;62.67
6433;BME280;3249;42.690;23.260;2023-08-06T12:37:56;93238.41;;;25.58;61.72
6433;BME280;3249;42.690;23.260;2023-08-06T12:40:28;93233.78;;;25.67;62.19
6433;BME280;3249;42.690;23.260;2023-08-06T12:42:57;93227.41;;;25.68;62.71
6433;BME280;3249;42.690;23.260;2023-08-06T12:45:27;93230.59;;;25.61;61.95
6433;BME280;3249;42.690;23.260;2023-08-06T12:47:56;93234.53;;;25.67;60.16
6433;BME280;3249;42.690;23.260;2023-08-06T12:50:24;93226.91;;;25.50;64.03
6433;BME280;3249;42.690;23.260;2023-08-06T12:52:56;93218.81;;;25.07;69.65
6433;BME280;3249;42.690;23.260;2023-08-06T12:55:28;93222.41;;;25.15;66.14
6433;BME280;3249;42.690;23.260;2023-08-06T12:57:57;93221.19;;;25.24;67.75
6433;BME280;3249;42.690;23.260;2023-08-06T13:00:26;93223.75;;;25.33;71.27
6433;BME280;3249;42.690;23.260;2023-08-06T13:02:55;93194.19;;;25.27;68.51
6433;BME280;3249;42.690;23.260;2023-08-06T13:05:24;93212.69;;;24.91;70.75
6433;BME280;3249;42.690;23.260;2023-08-06T13:07:53;93213.97;;;25.33;72.32
6433;BME280;3249;42.690;23.260;2023-08-06T13:10:28;93217.94;;;24.91;71.72
6433;BME280;3249;42.690;23.260;2023-08-06T13:12:57;93218.81;;;24.83;75.39
6433;BME280;3249;42.690;23.260;2023-08-06T13:15:26;93223.81;;;25.24;69.10
6433;BME280;3249;42.690;23.260;2023-08-06T13:17:54;93225.81;;;25.27;70.15
6433;BME280;3249;42.690;23.260;2023-08-06T13:20:24;93226.63;;;25.28;71.26